sensor_id;sensor_type;location;lat;lon;timestamp;P1;durP1;ratioP1;P2;durP2;ratioP2
7191;SDS011;3637;51.494;11.958;2022-09-11T00:00:51;2.60;;;2.37;;
7191;SDS011;3637;51.494;11.958;2022-09-11T00:03:53;3.43;;;2.57;;
7191;SDS011;3637;51.494;11.958;2022-09-11T00:06:57;2.43;;;2.20;;
7191;SDS011;3637;51.494;11.958;2022-09-11T00:09:59;3.93;;;2.50;;
7191;SDS011;3637;51.494;11.958;2022-09-11T00:13:01;3.07;;;2.43;;
7191;SDS011;3637;51.494;11.958;2022-09-11T00:16:04;4.10;;;2.30;;
7191;SDS011;3637;51.494;11.958;2022-09-11T00:19:07;2.90;;;2.60;;
7191;SDS011;3637;51.494;11.958;2022-09-11T00:22:13;3.07;;;2.43;;
7191;SDS011;3637;51.494;11.958;2022-09-11T00:25:15;4.13;;;2.70;;
7191;SDS011;3637;51.494;11.958;2022-09-11T00:28:18;3.63;;;2.40;;
7191;SDS011;3637;51.494;11.958;2022-09-11T00:31:25;4.30;;;3.00;;
7191;SDS011;3637;51.494;11.958;2022-09-11T00:34:28;3.30;;;2.50;;
7191;SDS011;3637;51.494;11.958;2022-09-11T00:37:32;3.27;;;2.70;;
7191;SDS011;3637;51.494;11.958;2022-09-11T00:40:33;3.93;;;2.70;;
7191;SDS011;3637;51.494;11.958;2022-09-11T00:43:54;2.97;;;2.43;;
7191;SDS011;3637;51.494;11.958;2022-09-11T00:47:04;4.67;;;2.70;;
7191;SDS011;3637;51.494;11.958;2022-09-11T00:50:09;3.23;;;2.40;;
7191;SDS011;3637;51.494;11.958;2022-09-11T00:53:16;2.40;;;2.20;;
7191;SDS011;3637;51.494;11.958;2022-09-11T00:56:21;2.90;;;2.60;;
7191;SDS011;3637;51.494;11.958;2022-09-11T00:59:27;3.47;;;2.60;;
7191;SDS011;3637;51.494;11.958;2022-09-11T01:02:31;3.63;;;2.73;;
7191;SDS011;3637;51.494;11.958;2022-09-11T01:05:36;3.53;;;2.77;;
7191;SDS011;3637;51.494;11.958;2022-09-11T01:08:42;3.03;;;2.60;;
7191;SDS011;3637;51.494;11.958;2022-09-11T01:11:46;2.70;;;2.43;;
7191;SDS011;3637;51.494;11.958;2022-09-11T01:14:54;2.83;;;2.53;;
7191;SDS011;3637;51.494;11.958;2022-09-11T01:18:01;4.50;;;2.50;;
7191;SDS011;3637;51.494;11.958;2022-09-11T01:24:52;3.67;;;2.83;;
7191;SDS011;3637;51.494;11.958;2022-09-11T01:27:57;3.87;;;2.60;;
7191;SDS011;3637;51.494;11.958;2022-09-11T01:31:01;3.67;;;2.60;;
7191;SDS011;3637;51.494;11.958;2022-09-11T01:34:09;3.00;;;2.70;;
7191;SDS011;3637;51.494;11.958;2022-09-11T01:37:17;3.30;;;3.00;;
7191;SDS011;3637;51.494;11.958;2022-09-11T01:40:26;4.70;;;2.77;;
7191;SDS011;3637;51.494;11.958;2022-09-11T01:43:33;4.77;;;2.90;;
7191;SDS011;3637;51.494;11.958;2022-09-11T01:46:41;3.03;;;2.43;;
7191;SDS011;3637;51.494;11.958;2022-09-11T01:49:47;3.20;;;2.70;;
7191;SDS011;3637;51.494;11.958;2022-09-11T01:52:56;4.03;;;2.53;;
7191;SDS011;3637;51.494;11.958;2022-09-11T01:56:00;3.50;;;2.70;;
7191;SDS011;3637;51.494;11.958;2022-09-11T01:59:08;4.47;;;2.77;;
7191;SDS011;3637;51.494;11.958;2022-09-11T02:02:13;3.50;;;2.80;;
7191;SDS011;3637;51.494;11.958;2022-09-11T02:05:22;3.13;;;2.60;;
7191;SDS011;3637;51.494;11.958;2022-09-11T02:08:29;3.20;;;2.73;;
7191;SDS011;3637;51.494;11.958;2022-09-11T02:11:37;3.07;;;2.70;;
7191;SDS011;3637;51.494;11.958;2022-09-11T02:14:43;3.50;;;2.80;;
7191;SDS011;3637;51.494;11.958;2022-09-11T02:17:48;4.83;;;2.57;;
7191;SDS011;3637;51.494;11.958;2022-09-11T02:20:54;3.17;;;2.40;;
7191;SDS011;3637;51.494;11.958;2022-09-11T02:23:56;3.37;;;2.70;;
7191;SDS011;3637;51.494;11.958;2022-09-11T02:27:00;2.47;;;2.27;;
7191;SDS011;3637;51.494;11.958;2022-09-11T02:30:07;2.80;;;2.50;;
7191;SDS011;3637;51.494;11.958;2022-09-11T02:33:25;3.00;;;2.67;;
7191;SDS011;3637;51.494;11.958;2022-09-11T02:36:39;3.63;;;2.47;;
7191;SDS011;3637;51.494;11.958;2022-09-11T02:39:58;2.63;;;2.40;;
7191;SDS011;3637;51.494;11.958;2022-09-11T02:43:23;2.90;;;2.60;;
7191;SDS011;3637;51.494;11.958;2022-09-11T02:46:40;3.50;;;2.73;;
7191;SDS011;3637;51.494;11.958;2022-09-11T02:50:06;3.30;;;2.90;;
7191;SDS011;3637;51.494;11.958;2022-09-11T02:53:17;2.97;;;2.40;;
7191;SDS011;3637;51.494;11.958;2022-09-11T02:56:26;3.93;;;2.73;;
7191;SDS011;3637;51.494;11.958;2022-09-11T02:59:34;3.40;;;2.87;;
7191;SDS011;3637;51.494;11.958;2022-09-11T03:02:41;3.00;;;2.33;;
7191;SDS011;3637;51.494;11.958;2022-09-11T03:05:43;4.50;;;2.77;;
7191;SDS011;3637;51.494;11.958;2022-09-11T03:08:45;3.50;;;2.50;;
7191;SDS011;3637;51.494;11.958;2022-09-11T03:11:47;2.80;;;2.50;;
7191;SDS011;3637;51.494;11.958;2022-09-11T03:14:49;3.73;;;2.70;;
7191;SDS011;3637;51.494;11.958;2022-09-11T03:17:53;3.63;;;3.00;;
7191;SDS011;3637;51.494;11.958;2022-09-11T03:20:55;3.03;;;2.50;;
7191;SDS011;3637;51.494;11.958;2022-09-11T03:23:57;2.60;;;2.40;;
7191;SDS011;3637;51.494;11.958;2022-09-11T03:26:58;3.90;;;2.80;;
7191;SDS011;3637;51.494;11.958;2022-09-11T03:30:01;3.20;;;2.83;;
7191;SDS011;3637;51.494;11.958;2022-09-11T03:33:04;3.33;;;2.70;;
7191;SDS011;3637;51.494;11.958;2022-09-11T03:36:06;2.90;;;2.60;;
7191;SDS011;3637;51.494;11.958;2022-09-11T03:39:14;3.07;;;2.67;;
7191;SDS011;3637;51.494;11.958;2022-09-11T03:42:15;3.57;;;2.90;;
7191;SDS011;3637;51.494;11.958;2022-09-11T03:45:17;3.87;;;2.70;;
7191;SDS011;3637;51.494;11.958;2022-09-11T03:48:21;3.20;;;2.90;;
7191;SDS011;3637;51.494;11.958;2022-09-11T03:51:24;3.10;;;2.80;;
7191;SDS011;3637;51.494;11.958;2022-09-11T03:54:26;4.20;;;3.37;;
7191;SDS011;3637;51.494;11.958;2022-09-11T03:57:28;6.47;;;3.23;;
7191;SDS011;3637;51.494;11.958;2022-09-11T04:00:32;3.60;;;2.80;;
7191;SDS011;3637;51.494;11.958;2022-09-11T04:03:36;5.13;;;3.10;;
7191;SDS011;3637;51.494;11.958;2022-09-11T04:06:38;3.67;;;3.00;;
7191;SDS011;3637;51.494;11.958;2022-09-11T04:09:40;4.70;;;3.33;;
7191;SDS011;3637;51.494;11.958;2022-09-11T04:12:42;3.97;;;2.83;;
7191;SDS011;3637;51.494;11.958;2022-09-11T04:15:44;3.90;;;3.00;;
7191;SDS011;3637;51.494;11.958;2022-09-11T04:18:47;3.43;;;3.13;;
7191;SDS011;3637;51.494;11.958;2022-09-11T04:21:50;4.13;;;3.40;;
7191;SDS011;3637;51.494;11.958;2022-09-11T04:24:52;5.30;;;3.60;;
7191;SDS011;3637;51.494;11.958;2022-09-11T04:27:53;7.13;;;4.40;;
7191;SDS011;3637;51.494;11.958;2022-09-11T04:31:02;5.00;;;3.30;;
7191;SDS011;3637;51.494;11.958;2022-09-11T04:34:05;4.20;;;3.40;;
7191;SDS011;3637;51.494;11.958;2022-09-11T04:37:08;3.77;;;3.30;;
7191;SDS011;3637;51.494;11.958;2022-09-11T04:40:10;4.63;;;3.37;;
7191;SDS011;3637;51.494;11.958;2022-09-11T04:43:12;5.80;;;3.50;;
7191;SDS011;3637;51.494;11.958;2022-09-11T04:46:15;4.20;;;3.40;;
7191;SDS011;3637;51.494;11.958;2022-09-11T04:49:19;5.07;;;3.70;;
7191;SDS011;3637;51.494;11.958;2022-09-11T04:52:21;5.73;;;4.10;;
7191;SDS011;3637;51.494;11.958;2022-09-11T04:55:24;5.90;;;4.20;;
7191;SDS011;3637;51.494;11.958;2022-09-11T04:58:25;6.03;;;4.23;;
7191;SDS011;3637;51.494;11.958;2022-09-11T05:01:28;6.73;;;3.90;;
7191;SDS011;3637;51.494;11.958;2022-09-11T05:04:33;4.40;;;3.80;;
7191;SDS011;3637;51.494;11.958;2022-09-11T05:07:35;5.70;;;4.57;;
7191;SDS011;3637;51.494;11.958;2022-09-11T05:10:38;5.43;;;4.33;;
7191;SDS011;3637;51.494;11.958;2022-09-11T05:13:41;9.17;;;4.87;;
7191;SDS011;3637;51.494;11.958;2022-09-11T05:16:43;5.83;;;4.60;;
7191;SDS011;3637;51.494;11.958;2022-09-11T05:19:47;7.03;;;5.37;;
7191;SDS011;3637;51.494;11.958;2022-09-11T05:22:49;8.43;;;4.83;;
7191;SDS011;3637;51.494;11.958;2022-09-11T05:25:55;7.80;;;5.10;;
7191;SDS011;3637;51.494;11.958;2022-09-11T05:28:58;6.03;;;5.40;;
7191;SDS011;3637;51.494;11.958;2022-09-11T05:32:01;6.40;;;5.20;;
7191;SDS011;3637;51.494;11.958;2022-09-11T05:35:05;7.93;;;5.17;;
7191;SDS011;3637;51.494;11.958;2022-09-11T05:38:07;7.73;;;6.10;;
7191;SDS011;3637;51.494;11.958;2022-09-11T05:41:10;7.60;;;6.20;;
7191;SDS011;3637;51.494;11.958;2022-09-11T05:44:14;6.83;;;6.13;;
7191;SDS011;3637;51.494;11.958;2022-09-11T05:47:16;10.53;;;7.23;;
7191;SDS011;3637;51.494;11.958;2022-09-11T05:50:19;11.20;;;7.73;;
7191;SDS011;3637;51.494;11.958;2022-09-11T05:53:21;11.07;;;8.00;;
7191;SDS011;3637;51.494;11.958;2022-09-11T05:56:23;12.23;;;9.10;;
7191;SDS011;3637;51.494;11.958;2022-09-11T05:59:27;12.90;;;8.73;;
7191;SDS011;3637;51.494;11.958;2022-09-11T06:02:29;10.03;;;8.10;;
7191;SDS011;3637;51.494;11.958;2022-09-11T06:05:32;15.90;;;8.73;;
7191;SDS011;3637;51.494;11.958;2022-09-11T06:08:34;12.77;;;9.10;;
7191;SDS011;3637;51.494;11.958;2022-09-11T06:11:36;12.53;;;9.10;;
7191;SDS011;3637;51.494;11.958;2022-09-11T06:14:38;12.47;;;8.43;;
7191;SDS011;3637;51.494;11.958;2022-09-11T06:17:43;12.87;;;9.23;;
7191;SDS011;3637;51.494;11.958;2022-09-11T06:20:54;11.00;;;8.30;;
7191;SDS011;3637;51.494;11.958;2022-09-11T06:23:56;12.67;;;8.07;;
7191;SDS011;3637;51.494;11.958;2022-09-11T06:26:58;11.03;;;7.47;;
7191;SDS011;3637;51.494;11.958;2022-09-11T06:30:00;11.20;;;7.07;;
7191;SDS011;3637;51.494;11.958;2022-09-11T06:33:02;9.63;;;7.07;;
7191;SDS011;3637;51.494;11.958;2022-09-11T06:36:06;11.50;;;7.47;;
7191;SDS011;3637;51.494;11.958;2022-09-11T06:39:11;10.73;;;7.53;;
7191;SDS011;3637;51.494;11.958;2022-09-11T06:42:12;14.50;;;8.43;;
7191;SDS011;3637;51.494;11.958;2022-09-11T06:45:14;13.17;;;8.93;;
7191;SDS011;3637;51.494;11.958;2022-09-11T06:48:16;12.23;;;8.43;;
7191;SDS011;3637;51.494;11.958;2022-09-11T06:51:20;12.97;;;8.27;;
7191;SDS011;3637;51.494;11.958;2022-09-11T06:54:23;11.80;;;8.50;;
7191;SDS011;3637;51.494;11.958;2022-09-11T06:57:24;14.70;;;8.27;;
7191;SDS011;3637;51.494;11.958;2022-09-11T07:00:27;12.47;;;8.53;;
7191;SDS011;3637;51.494;11.958;2022-09-11T07:03:30;14.93;;;8.17;;
7191;SDS011;3637;51.494;11.958;2022-09-11T07:06:34;13.90;;;9.33;;
7191;SDS011;3637;51.494;11.958;2022-09-11T07:09:37;14.37;;;8.50;;
7191;SDS011;3637;51.494;11.958;2022-09-11T07:12:39;14.40;;;8.13;;
7191;SDS011;3637;51.494;11.958;2022-09-11T07:15:41;11.20;;;7.27;;
7191;SDS011;3637;51.494;11.958;2022-09-11T07:18:43;12.03;;;7.37;;
7191;SDS011;3637;51.494;11.958;2022-09-11T07:21:47;12.13;;;6.80;;
7191;SDS011;3637;51.494;11.958;2022-09-11T07:24:49;10.90;;;6.87;;
7191;SDS011;3637;51.494;11.958;2022-09-11T07:27:53;11.03;;;7.20;;
7191;SDS011;3637;51.494;11.958;2022-09-11T07:31:01;10.83;;;6.97;;
7191;SDS011;3637;51.494;11.958;2022-09-11T07:34:04;10.07;;;6.40;;
7191;SDS011;3637;51.494;11.958;2022-09-11T07:37:07;11.53;;;6.83;;
7191;SDS011;3637;51.494;11.958;2022-09-11T07:40:09;12.90;;;7.47;;
7191;SDS011;3637;51.494;11.958;2022-09-11T07:43:11;10.87;;;7.40;;
7191;SDS011;3637;51.494;11.958;2022-09-11T07:46:14;10.77;;;6.77;;
7191;SDS011;3637;51.494;11.958;2022-09-11T07:49:16;11.90;;;7.03;;
7191;SDS011;3637;51.494;11.958;2022-09-11T07:52:19;9.90;;;7.40;;
7191;SDS011;3637;51.494;11.958;2022-09-11T07:55:21;9.73;;;6.67;;
7191;SDS011;3637;51.494;11.958;2022-09-11T07:58:23;11.77;;;7.73;;
7191;SDS011;3637;51.494;11.958;2022-09-11T08:01:25;11.37;;;7.83;;
7191;SDS011;3637;51.494;11.958;2022-09-11T08:04:29;11.77;;;7.20;;
7191;SDS011;3637;51.494;11.958;2022-09-11T08:07:33;9.70;;;7.03;;
7191;SDS011;3637;51.494;11.958;2022-09-11T08:10:35;10.63;;;7.37;;
7191;SDS011;3637;51.494;11.958;2022-09-11T08:13:39;8.63;;;6.40;;
7191;SDS011;3637;51.494;11.958;2022-09-11T08:16:42;8.03;;;6.17;;
7191;SDS011;3637;51.494;11.958;2022-09-11T08:19:44;8.10;;;5.93;;
7191;SDS011;3637;51.494;11.958;2022-09-11T08:22:48;7.33;;;5.20;;
7191;SDS011;3637;51.494;11.958;2022-09-11T08:25:50;7.23;;;5.33;;
7191;SDS011;3637;51.494;11.958;2022-09-11T08:28:54;7.40;;;5.10;;
7191;SDS011;3637;51.494;11.958;2022-09-11T08:31:57;7.47;;;4.60;;
7191;SDS011;3637;51.494;11.958;2022-09-11T08:34:58;6.43;;;5.37;;
7191;SDS011;3637;51.494;11.958;2022-09-11T08:38:01;7.03;;;5.13;;
7191;SDS011;3637;51.494;11.958;2022-09-11T08:41:08;6.07;;;5.23;;
7191;SDS011;3637;51.494;11.958;2022-09-11T08:44:13;8.03;;;5.53;;
7191;SDS011;3637;51.494;11.958;2022-09-11T08:47:20;7.03;;;5.03;;
7191;SDS011;3637;51.494;11.958;2022-09-11T08:50:25;6.63;;;5.30;;
7191;SDS011;3637;51.494;11.958;2022-09-11T08:53:32;6.33;;;4.53;;
7191;SDS011;3637;51.494;11.958;2022-09-11T08:56:34;5.80;;;4.33;;
7191;SDS011;3637;51.494;11.958;2022-09-11T08:59:44;6.30;;;4.77;;
7191;SDS011;3637;51.494;11.958;2022-09-11T09:06:34;6.87;;;4.80;;
7191;SDS011;3637;51.494;11.958;2022-09-11T09:09:47;6.80;;;4.97;;
7191;SDS011;3637;51.494;11.958;2022-09-11T09:12:58;7.83;;;5.20;;
7191;SDS011;3637;51.494;11.958;2022-09-11T09:16:07;7.13;;;5.00;;
7191;SDS011;3637;51.494;11.958;2022-09-11T09:19:22;6.00;;;4.57;;
7191;SDS011;3637;51.494;11.958;2022-09-11T09:22:30;5.47;;;4.27;;
7191;SDS011;3637;51.494;11.958;2022-09-11T09:25:41;5.43;;;4.50;;
7191;SDS011;3637;51.494;11.958;2022-09-11T09:28:44;7.00;;;4.30;;
7191;SDS011;3637;51.494;11.958;2022-09-11T09:31:48;5.83;;;3.63;;
7191;SDS011;3637;51.494;11.958;2022-09-11T09:34:54;5.40;;;4.13;;
7191;SDS011;3637;51.494;11.958;2022-09-11T09:38:00;5.43;;;3.90;;
7191;SDS011;3637;51.494;11.958;2022-09-11T09:41:07;5.40;;;4.13;;
7191;SDS011;3637;51.494;11.958;2022-09-11T09:44:22;5.37;;;4.20;;
7191;SDS011;3637;51.494;11.958;2022-09-11T09:47:29;6.47;;;4.23;;
7191;SDS011;3637;51.494;11.958;2022-09-11T09:50:32;5.13;;;4.20;;
7191;SDS011;3637;51.494;11.958;2022-09-11T09:53:38;7.10;;;3.77;;
7191;SDS011;3637;51.494;11.958;2022-09-11T09:56:45;4.73;;;3.67;;
7191;SDS011;3637;51.494;11.958;2022-09-11T09:59:56;5.73;;;3.43;;
7191;SDS011;3637;51.494;11.958;2022-09-11T10:03:14;5.20;;;3.60;;
7191;SDS011;3637;51.494;11.958;2022-09-11T10:06:19;5.23;;;3.37;;
7191;SDS011;3637;51.494;11.958;2022-09-11T10:09:26;5.13;;;3.60;;
7191;SDS011;3637;51.494;11.958;2022-09-11T10:12:30;5.23;;;3.93;;
7191;SDS011;3637;51.494;11.958;2022-09-11T10:15:36;4.93;;;3.70;;
7191;SDS011;3637;51.494;11.958;2022-09-11T10:18:40;5.17;;;3.60;;
7191;SDS011;3637;51.494;11.958;2022-09-11T10:21:44;3.90;;;3.40;;
7191;SDS011;3637;51.494;11.958;2022-09-11T10:24:48;4.10;;;3.13;;
7191;SDS011;3637;51.494;11.958;2022-09-11T10:28:01;3.37;;;2.57;;
7191;SDS011;3637;51.494;11.958;2022-09-11T10:31:07;4.73;;;3.03;;
7191;SDS011;3637;51.494;11.958;2022-09-11T10:34:15;3.07;;;2.77;;
7191;SDS011;3637;51.494;11.958;2022-09-11T10:37:21;4.57;;;3.00;;
7191;SDS011;3637;51.494;11.958;2022-09-11T10:40:25;4.07;;;3.00;;
7191;SDS011;3637;51.494;11.958;2022-09-11T10:43:30;3.43;;;2.90;;
7191;SDS011;3637;51.494;11.958;2022-09-11T10:46:36;4.90;;;2.97;;
7191;SDS011;3637;51.494;11.958;2022-09-11T10:49:42;3.17;;;2.60;;
7191;SDS011;3637;51.494;11.958;2022-09-11T10:52:48;7.90;;;3.10;;
7191;SDS011;3637;51.494;11.958;2022-09-11T10:56:15;2.80;;;2.30;;
7191;SDS011;3637;51.494;11.958;2022-09-11T10:59:22;3.03;;;2.53;;
7191;SDS011;3637;51.494;11.958;2022-09-11T11:02:31;3.20;;;2.90;;
7191;SDS011;3637;51.494;11.958;2022-09-11T11:05:35;4.13;;;2.97;;
7191;SDS011;3637;51.494;11.958;2022-09-11T11:12:26;4.57;;;3.13;;
7191;SDS011;3637;51.494;11.958;2022-09-11T11:15:50;4.97;;;3.63;;
7191;SDS011;3637;51.494;11.958;2022-09-11T11:19:08;5.33;;;3.77;;
7191;SDS011;3637;51.494;11.958;2022-09-11T11:23:03;4.90;;;4.00;;
7191;SDS011;3637;51.494;11.958;2022-09-11T11:26:34;5.87;;;4.20;;
7191;SDS011;3637;51.494;11.958;2022-09-11T11:30:00;4.77;;;3.80;;
7191;SDS011;3637;51.494;11.958;2022-09-11T11:33:24;7.17;;;4.50;;
7191;SDS011;3637;51.494;11.958;2022-09-11T11:36:42;6.60;;;4.40;;
7191;SDS011;3637;51.494;11.958;2022-09-11T11:39:51;6.83;;;4.73;;
7191;SDS011;3637;51.494;11.958;2022-09-11T11:47:04;7.67;;;5.23;;
7191;SDS011;3637;51.494;11.958;2022-09-11T11:50:15;7.20;;;4.90;;
7191;SDS011;3637;51.494;11.958;2022-09-11T11:53:24;5.93;;;4.90;;
7191;SDS011;3637;51.494;11.958;2022-09-11T11:56:43;6.60;;;4.90;;
7191;SDS011;3637;51.494;11.958;2022-09-11T11:59:52;7.17;;;4.47;;
7191;SDS011;3637;51.494;11.958;2022-09-11T12:03:00;4.83;;;3.90;;
7191;SDS011;3637;51.494;11.958;2022-09-11T12:06:27;4.27;;;3.87;;
7191;SDS011;3637;51.494;11.958;2022-09-11T12:09:33;6.20;;;4.20;;
7191;SDS011;3637;51.494;11.958;2022-09-11T12:12:45;6.07;;;4.43;;
7191;SDS011;3637;51.494;11.958;2022-09-11T12:16:02;7.20;;;4.30;;
7191;SDS011;3637;51.494;11.958;2022-09-11T12:19:27;5.87;;;4.23;;
7191;SDS011;3637;51.494;11.958;2022-09-11T12:22:33;6.53;;;4.73;;
7191;SDS011;3637;51.494;11.958;2022-09-11T12:25:49;4.20;;;3.43;;
7191;SDS011;3637;51.494;11.958;2022-09-11T12:32:56;4.73;;;4.03;;
7191;SDS011;3637;51.494;11.958;2022-09-11T12:36:05;5.77;;;4.47;;
7191;SDS011;3637;51.494;11.958;2022-09-11T12:45:58;4.93;;;3.67;;
7191;SDS011;3637;51.494;11.958;2022-09-11T12:49:06;4.10;;;3.30;;
7191;SDS011;3637;51.494;11.958;2022-09-11T12:52:23;3.97;;;3.07;;
7191;SDS011;3637;51.494;11.958;2022-09-11T12:55:41;5.40;;;3.30;;
7191;SDS011;3637;51.494;11.958;2022-09-11T12:58:56;4.00;;;2.80;;
7191;SDS011;3637;51.494;11.958;2022-09-11T13:02:19;3.67;;;3.07;;
7191;SDS011;3637;51.494;11.958;2022-09-11T13:05:29;4.57;;;3.10;;
7191;SDS011;3637;51.494;11.958;2022-09-11T13:08:35;3.83;;;3.07;;
7191;SDS011;3637;51.494;11.958;2022-09-11T13:11:44;3.50;;;2.40;;
7191;SDS011;3637;51.494;11.958;2022-09-11T13:14:48;4.70;;;2.97;;
7191;SDS011;3637;51.494;11.958;2022-09-11T13:17:54;5.10;;;2.87;;
7191;SDS011;3637;51.494;11.958;2022-09-11T13:21:02;4.77;;;3.13;;
7191;SDS011;3637;51.494;11.958;2022-09-11T13:24:21;3.77;;;2.93;;
7191;SDS011;3637;51.494;11.958;2022-09-11T13:27:26;5.03;;;3.00;;
7191;SDS011;3637;51.494;11.958;2022-09-11T13:30:32;4.47;;;2.60;;
7191;SDS011;3637;51.494;11.958;2022-09-11T13:33:36;4.60;;;2.80;;
7191;SDS011;3637;51.494;11.958;2022-09-11T13:36:39;3.10;;;2.80;;
7191;SDS011;3637;51.494;11.958;2022-09-11T13:39:46;3.30;;;3.00;;
7191;SDS011;3637;51.494;11.958;2022-09-11T13:42:50;2.60;;;2.40;;
7191;SDS011;3637;51.494;11.958;2022-09-11T13:46:07;2.90;;;2.60;;
7191;SDS011;3637;51.494;11.958;2022-09-11T13:49:26;3.43;;;2.80;;
7191;SDS011;3637;51.494;11.958;2022-09-11T13:52:34;3.30;;;2.87;;
7191;SDS011;3637;51.494;11.958;2022-09-11T13:55:36;3.73;;;2.70;;
7191;SDS011;3637;51.494;11.958;2022-09-11T13:58:39;3.67;;;2.40;;
7191;SDS011;3637;51.494;11.958;2022-09-11T14:01:49;3.43;;;2.90;;
7191;SDS011;3637;51.494;11.958;2022-09-11T14:04:58;3.40;;;2.80;;
7191;SDS011;3637;51.494;11.958;2022-09-11T14:08:04;3.70;;;2.93;;
7191;SDS011;3637;51.494;11.958;2022-09-11T14:11:22;3.17;;;2.60;;
7191;SDS011;3637;51.494;11.958;2022-09-11T14:14:30;3.63;;;2.93;;
7191;SDS011;3637;51.494;11.958;2022-09-11T14:17:36;3.60;;;2.87;;
7191;SDS011;3637;51.494;11.958;2022-09-11T14:20:42;3.30;;;2.60;;
7191;SDS011;3637;51.494;11.958;2022-09-11T14:23:53;3.63;;;2.80;;
7191;SDS011;3637;51.494;11.958;2022-09-11T14:27:01;3.47;;;2.70;;
7191;SDS011;3637;51.494;11.958;2022-09-11T14:30:29;3.83;;;2.90;;
7191;SDS011;3637;51.494;11.958;2022-09-11T14:33:35;3.77;;;2.90;;
7191;SDS011;3637;51.494;11.958;2022-09-11T14:36:38;4.07;;;2.93;;
7191;SDS011;3637;51.494;11.958;2022-09-11T14:39:45;3.57;;;2.90;;
7191;SDS011;3637;51.494;11.958;2022-09-11T14:43:01;2.90;;;2.60;;
7191;SDS011;3637;51.494;11.958;2022-09-11T14:46:16;3.77;;;2.90;;
7191;SDS011;3637;51.494;11.958;2022-09-11T14:49:18;4.10;;;2.43;;
7191;SDS011;3637;51.494;11.958;2022-09-11T14:52:20;4.40;;;2.50;;
7191;SDS011;3637;51.494;11.958;2022-09-11T14:55:31;3.33;;;2.87;;
7191;SDS011;3637;51.494;11.958;2022-09-11T14:58:33;3.67;;;2.87;;
7191;SDS011;3637;51.494;11.958;2022-09-11T15:01:37;3.63;;;2.70;;
7191;SDS011;3637;51.494;11.958;2022-09-11T15:04:41;3.30;;;2.73;;
7191;SDS011;3637;51.494;11.958;2022-09-11T15:07:45;2.83;;;2.63;;
7191;SDS011;3637;51.494;11.958;2022-09-11T15:10:48;3.60;;;2.80;;
7191;SDS011;3637;51.494;11.958;2022-09-11T15:13:52;7.93;;;2.90;;
7191;SDS011;3637;51.494;11.958;2022-09-11T15:17:06;3.90;;;2.87;;
7191;SDS011;3637;51.494;11.958;2022-09-11T15:20:09;3.23;;;2.87;;
7191;SDS011;3637;51.494;11.958;2022-09-11T15:23:11;3.93;;;2.90;;
7191;SDS011;3637;51.494;11.958;2022-09-11T15:26:13;3.83;;;2.90;;
7191;SDS011;3637;51.494;11.958;2022-09-11T15:29:14;3.40;;;2.67;;
7191;SDS011;3637;51.494;11.958;2022-09-11T15:32:21;3.83;;;3.20;;
7191;SDS011;3637;51.494;11.958;2022-09-11T15:35:26;4.00;;;2.67;;
7191;SDS011;3637;51.494;11.958;2022-09-11T15:38:28;3.87;;;2.80;;
7191;SDS011;3637;51.494;11.958;2022-09-11T15:41:31;3.30;;;2.83;;
7191;SDS011;3637;51.494;11.958;2022-09-11T15:44:37;3.53;;;2.80;;
7191;SDS011;3637;51.494;11.958;2022-09-11T15:47:40;3.97;;;3.10;;
7191;SDS011;3637;51.494;11.958;2022-09-11T15:50:57;3.40;;;2.90;;
7191;SDS011;3637;51.494;11.958;2022-09-11T15:54:02;3.17;;;2.87;;
7191;SDS011;3637;51.494;11.958;2022-09-11T15:57:07;4.33;;;3.30;;
7191;SDS011;3637;51.494;11.958;2022-09-11T16:00:09;4.00;;;3.30;;
7191;SDS011;3637;51.494;11.958;2022-09-11T16:03:18;3.30;;;2.83;;
7191;SDS011;3637;51.494;11.958;2022-09-11T16:06:22;3.50;;;2.90;;
7191;SDS011;3637;51.494;11.958;2022-09-11T16:09:26;4.50;;;2.87;;
7191;SDS011;3637;51.494;11.958;2022-09-11T16:12:29;4.60;;;3.27;;
7191;SDS011;3637;51.494;11.958;2022-09-11T16:15:32;4.47;;;3.23;;
7191;SDS011;3637;51.494;11.958;2022-09-11T16:18:37;3.40;;;3.10;;
7191;SDS011;3637;51.494;11.958;2022-09-11T16:21:38;4.07;;;2.90;;
7191;SDS011;3637;51.494;11.958;2022-09-11T16:24:40;3.30;;;3.00;;
7191;SDS011;3637;51.494;11.958;2022-09-11T16:27:42;3.10;;;2.80;;
7191;SDS011;3637;51.494;11.958;2022-09-11T16:30:44;4.03;;;3.03;;
7191;SDS011;3637;51.494;11.958;2022-09-11T16:33:48;3.40;;;2.70;;
7191;SDS011;3637;51.494;11.958;2022-09-11T16:36:50;3.30;;;3.00;;
7191;SDS011;3637;51.494;11.958;2022-09-11T16:39:51;4.23;;;3.37;;
7191;SDS011;3637;51.494;11.958;2022-09-11T16:42:53;5.00;;;3.40;;
7191;SDS011;3637;51.494;11.958;2022-09-11T16:45:55;4.00;;;2.90;;
7191;SDS011;3637;51.494;11.958;2022-09-11T16:48:58;3.57;;;3.17;;
7191;SDS011;3637;51.494;11.958;2022-09-11T16:52:01;4.87;;;3.30;;
7191;SDS011;3637;51.494;11.958;2022-09-11T16:55:04;3.70;;;3.00;;
7191;SDS011;3637;51.494;11.958;2022-09-11T16:58:08;5.63;;;3.27;;
7191;SDS011;3637;51.494;11.958;2022-09-11T17:01:10;4.17;;;3.23;;
7191;SDS011;3637;51.494;11.958;2022-09-11T17:04:15;3.83;;;3.07;;
7191;SDS011;3637;51.494;11.958;2022-09-11T17:07:17;3.77;;;3.33;;
7191;SDS011;3637;51.494;11.958;2022-09-11T17:10:19;3.60;;;2.83;;
7191;SDS011;3637;51.494;11.958;2022-09-11T17:13:21;3.27;;;2.90;;
7191;SDS011;3637;51.494;11.958;2022-09-11T17:16:24;4.43;;;3.53;;
7191;SDS011;3637;51.494;11.958;2022-09-11T17:19:29;5.03;;;3.40;;
7191;SDS011;3637;51.494;11.958;2022-09-11T17:22:31;5.70;;;3.97;;
7191;SDS011;3637;51.494;11.958;2022-09-11T17:25:38;4.23;;;3.60;;
7191;SDS011;3637;51.494;11.958;2022-09-11T17:29:22;3.80;;;3.40;;
7191;SDS011;3637;51.494;11.958;2022-09-11T17:32:23;6.97;;;3.47;;
7191;SDS011;3637;51.494;11.958;2022-09-11T17:35:27;5.00;;;3.87;;
7191;SDS011;3637;51.494;11.958;2022-09-11T17:38:29;5.07;;;3.40;;
7191;SDS011;3637;51.494;11.958;2022-09-11T17:41:34;4.27;;;3.30;;
7191;SDS011;3637;51.494;11.958;2022-09-11T17:44:36;5.93;;;4.07;;
7191;SDS011;3637;51.494;11.958;2022-09-11T17:47:40;5.50;;;3.60;;
7191;SDS011;3637;51.494;11.958;2022-09-11T17:50:44;4.43;;;3.63;;
7191;SDS011;3637;51.494;11.958;2022-09-11T17:53:46;5.43;;;3.37;;
7191;SDS011;3637;51.494;11.958;2022-09-11T17:56:49;4.00;;;3.53;;
7191;SDS011;3637;51.494;11.958;2022-09-11T17:59:52;5.40;;;3.53;;
7191;SDS011;3637;51.494;11.958;2022-09-11T18:02:54;4.87;;;3.57;;
7191;SDS011;3637;51.494;11.958;2022-09-11T18:05:59;4.13;;;3.67;;
7191;SDS011;3637;51.494;11.958;2022-09-11T18:09:03;4.60;;;3.73;;
7191;SDS011;3637;51.494;11.958;2022-09-11T18:12:10;4.07;;;3.63;;
7191;SDS011;3637;51.494;11.958;2022-09-11T18:15:13;5.03;;;3.57;;
7191;SDS011;3637;51.494;11.958;2022-09-11T18:18:15;5.77;;;3.70;;
7191;SDS011;3637;51.494;11.958;2022-09-11T18:21:19;4.53;;;4.03;;
7191;SDS011;3637;51.494;11.958;2022-09-11T18:24:21;5.40;;;4.37;;
7191;SDS011;3637;51.494;11.958;2022-09-11T18:27:26;3.97;;;3.50;;
7191;SDS011;3637;51.494;11.958;2022-09-11T18:30:29;5.10;;;4.07;;
7191;SDS011;3637;51.494;11.958;2022-09-11T18:33:31;5.10;;;3.43;;
7191;SDS011;3637;51.494;11.958;2022-09-11T18:36:34;4.67;;;4.07;;
7191;SDS011;3637;51.494;11.958;2022-09-11T18:39:36;4.40;;;3.67;;
7191;SDS011;3637;51.494;11.958;2022-09-11T18:42:38;4.70;;;3.40;;
7191;SDS011;3637;51.494;11.958;2022-09-11T18:45:40;4.63;;;3.63;;
7191;SDS011;3637;51.494;11.958;2022-09-11T18:48:43;5.03;;;3.93;;
7191;SDS011;3637;51.494;11.958;2022-09-11T18:51:46;4.53;;;3.53;;
7191;SDS011;3637;51.494;11.958;2022-09-11T18:54:49;8.00;;;4.40;;
7191;SDS011;3637;51.494;11.958;2022-09-11T18:57:51;4.40;;;3.80;;
7191;SDS011;3637;51.494;11.958;2022-09-11T19:00:53;4.50;;;3.80;;
7191;SDS011;3637;51.494;11.958;2022-09-11T19:03:55;7.23;;;3.63;;
7191;SDS011;3637;51.494;11.958;2022-09-11T19:06:58;7.03;;;5.23;;
7191;SDS011;3637;51.494;11.958;2022-09-11T19:10:00;5.27;;;4.23;;
7191;SDS011;3637;51.494;11.958;2022-09-11T19:13:02;4.80;;;3.80;;
7191;SDS011;3637;51.494;11.958;2022-09-11T19:16:04;6.90;;;4.23;;
7191;SDS011;3637;51.494;11.958;2022-09-11T19:19:06;5.40;;;3.90;;
7191;SDS011;3637;51.494;11.958;2022-09-11T19:22:10;4.13;;;3.43;;